createdAt,value
2023-04-21T00:01:44.913Z,14.85
2023-04-21T00:04:15.312Z,14.83
2023-04-21T00:06:44.445Z,14.81
2023-04-21T00:09:13.657Z,14.79
2023-04-21T00:11:41.568Z,14.78
2023-04-21T00:14:09.434Z,14.71
2023-04-21T00:16:37.467Z,14.70
2023-04-21T00:19:07.033Z,14.66
2023-04-21T00:21:35.324Z,14.60
2023-04-21T00:24:03.542Z,14.46
2023-04-21T00:26:32.923Z,14.46
2023-04-21T00:29:00.865Z,14.46
2023-04-21T00:31:28.812Z,14.54
2023-04-21T00:33:58.874Z,14.59
2023-04-21T00:36:28.188Z,14.61
2023-04-21T00:38:56.070Z,14.53
2023-04-21T00:41:24.692Z,14.49
2023-04-21T00:44:04.263Z,14.45
2023-04-21T00:46:33.159Z,14.38
2023-04-21T00:49:04.324Z,14.41
2023-04-21T00:51:34.420Z,14.40
2023-04-21T00:54:05.182Z,14.38
2023-04-21T00:56:34.539Z,14.31
2023-04-21T00:59:04.817Z,14.27
2023-04-21T01:01:34.282Z,14.19
2023-04-21T01:04:03.723Z,14.17
2023-04-21T01:06:34.003Z,14.12
2023-04-21T01:09:02.168Z,14.08
2023-04-21T01:11:30.155Z,14.08
2023-04-21T01:13:58.231Z,14.00
2023-04-21T01:16:27.503Z,13.85
2023-04-21T01:18:56.302Z,13.82
2023-04-21T01:21:24.727Z,13.88
2023-04-21T01:23:54.107Z,13.92
2023-04-21T01:26:22.705Z,13.88
2023-04-21T01:28:51.273Z,13.87
2023-04-21T01:31:21.131Z,13.86
2023-04-21T01:33:49.200Z,13.90
2023-04-21T01:36:18.185Z,13.89
2023-04-21T01:38:46.123Z,13.84
2023-04-21T01:41:15.815Z,13.84
2023-04-21T01:43:43.708Z,13.81
2023-04-21T01:46:11.709Z,13.71
2023-04-21T01:48:39.617Z,13.75
2023-04-21T01:51:07.836Z,13.75
2023-04-21T01:53:35.770Z,13.77
2023-04-21T01:56:03.777Z,13.76
2023-04-21T01:58:33.703Z,13.82
2023-04-21T02:01:01.694Z,13.86
2023-04-21T02:03:29.848Z,13.80
2023-04-21T02:05:57.954Z,13.76
2023-04-21T02:08:25.952Z,13.75
2023-04-21T02:10:53.964Z,13.73
2023-04-21T02:13:21.970Z,13.67
2023-04-21T02:15:59.541Z,13.61
2023-04-21T02:18:34.561Z,13.57
2023-04-21T02:21:03.067Z,13.57
2023-04-21T02:23:31.124Z,13.54
2023-04-21T02:25:59.023Z,13.49
2023-04-21T02:28:26.915Z,13.47
2023-04-21T02:30:56.249Z,13.46
2023-04-21T02:33:24.852Z,13.46
2023-04-21T02:35:52.884Z,13.32
2023-04-21T02:38:20.835Z,13.22
2023-04-21T02:40:50.517Z,13.00
2023-04-21T02:43:19.894Z,12.97
2023-04-21T02:45:49.682Z,12.81
2023-04-21T02:48:22.910Z,12.73
2023-04-21T02:50:54.039Z,12.72
2023-04-21T02:53:22.085Z,12.68
2023-04-21T02:55:50.214Z,12.64
2023-04-21T02:58:18.270Z,12.60
2023-04-21T03:00:46.229Z,12.53
2023-04-21T03:03:14.303Z,12.43
2023-04-21T03:05:45.223Z,12.42
2023-04-21T03:08:13.185Z,12.34
2023-04-21T03:10:41.423Z,12.40
2023-04-21T03:13:09.285Z,12.46
2023-04-21T03:15:37.212Z,12.49
2023-04-21T03:18:05.346Z,12.44
2023-04-21T03:20:33.339Z,12.44
2023-04-21T03:23:02.843Z,12.44
2023-04-21T03:25:31.004Z,12.66
2023-04-21T03:27:59.119Z,12.72
2023-04-21T03:30:27.525Z,12.68
2023-04-21T03:32:56.256Z,12.62
2023-04-21T03:35:24.342Z,12.49
2023-04-21T03:37:52.385Z,12.26
2023-04-21T03:40:23.147Z,12.13
2023-04-21T03:42:51.568Z,12.10
2023-04-21T03:45:22.614Z,12.04
2023-04-21T03:47:53.950Z,11.98
2023-04-21T03:50:22.264Z,11.89
2023-04-21T03:52:50.275Z,11.84
2023-04-21T03:55:18.328Z,11.89
2023-04-21T03:57:47.587Z,11.99
2023-04-21T04:00:16.842Z,12.01
2023-04-21T04:02:46.507Z,12.02
2023-04-21T04:05:14.658Z,12.07
2023-04-21T04:07:42.615Z,12.15
2023-04-21T04:10:11.542Z,12.19
2023-04-21T04:12:39.476Z,12.29
2023-04-21T04:15:09.594Z,12.28
2023-04-21T04:17:37.667Z,12.28
2023-04-21T04:20:08.284Z,12.27
2023-04-21T04:22:37.051Z,12.29
2023-04-21T04:25:05.407Z,12.37
2023-04-21T04:27:34.327Z,12.40
2023-04-21T04:30:03.367Z,12.53
2023-04-21T04:32:34.032Z,12.70
2023-04-21T04:35:02.457Z,12.80
2023-04-21T04:37:31.729Z,12.71
2023-04-21T04:39:59.804Z,12.84
2023-04-21T04:42:27.803Z,12.81
2023-04-21T04:44:57.335Z,12.88
2023-04-21T04:47:25.419Z,13.01
2023-04-21T04:49:54.699Z,13.03
2023-04-21T04:52:22.637Z,13.06
2023-04-21T04:54:50.561Z,13.13
2023-04-21T04:57:18.717Z,13.15
2023-04-21T04:59:46.613Z,13.10
2023-04-21T05:02:14.676Z,13.03
2023-04-21T05:04:42.672Z,12.95
2023-04-21T05:07:11.916Z,12.94
2023-04-21T05:09:39.789Z,13.10
2023-04-21T05:12:07.960Z,13.17
2023-04-21T05:14:35.786Z,13.16
2023-04-21T05:17:03.807Z,13.18
2023-04-21T05:19:31.761Z,13.08
2023-04-21T05:22:01.729Z,13.10
2023-04-21T05:24:31.025Z,13.10
2023-04-21T05:26:58.879Z,13.17
2023-04-21T05:29:26.922Z,13.21
2023-04-21T05:31:54.800Z,13.19
2023-04-21T05:34:22.661Z,13.28
2023-04-21T05:36:52.221Z,13.26
2023-04-21T05:39:20.422Z,13.21
2023-04-21T05:41:49.721Z,13.33
2023-04-21T05:44:18.168Z,13.31
2023-04-21T05:46:46.253Z,13.35
2023-04-21T05:49:14.230Z,13.45
2023-04-21T05:51:42.648Z,13.66
2023-04-21T05:54:10.641Z,13.71
2023-04-21T05:56:38.595Z,13.88
2023-04-21T05:59:07.914Z,13.87
2023-04-21T06:01:35.933Z,13.93
2023-04-21T06:04:04.242Z,13.90
2023-04-21T06:06:32.784Z,13.95
2023-04-21T06:09:00.913Z,14.03
2023-04-21T06:11:28.927Z,14.02
2023-04-21T06:13:58.681Z,13.98
2023-04-21T06:16:28.091Z,14.01
2023-04-21T06:18:58.922Z,14.01
2023-04-21T06:21:26.921Z,13.97
2023-04-21T06:23:54.797Z,13.97
2023-04-21T06:26:22.703Z,13.95
2023-04-21T06:28:50.592Z,13.97
2023-04-21T06:31:19.854Z,14.06
2023-04-21T06:33:49.187Z,14.10
2023-04-21T06:36:18.159Z,14.20
2023-04-21T06:38:46.340Z,14.26
2023-04-21T06:41:14.267Z,14.37
2023-04-21T06:43:42.262Z,14.38
2023-04-21T06:46:10.838Z,14.42
2023-04-21T06:48:38.703Z,14.51
2023-04-21T06:51:08.034Z,14.66
2023-04-21T06:53:36.021Z,14.72
2023-04-21T06:56:04.596Z,14.74
2023-04-21T06:58:32.387Z,14.76
2023-04-21T07:01:00.303Z,14.80
2023-04-21T07:03:28.328Z,14.70
2023-04-21T07:05:56.246Z,14.63
2023-04-21T07:08:26.267Z,14.62
2023-04-21T07:10:54.182Z,14.55
2023-04-21T07:13:22.035Z,14.53
2023-04-21T07:15:50.101Z,14.64
2023-04-21T07:18:18.070Z,14.72
2023-04-21T07:20:46.224Z,14.74
2023-04-21T07:23:14.159Z,14.80
2023-04-21T07:25:43.510Z,14.92
2023-04-21T07:28:11.675Z,14.96
2023-04-21T07:30:39.531Z,15.04
2023-04-21T07:33:08.150Z,15.29
2023-04-21T07:35:36.176Z,15.43
2023-04-21T07:38:04.231Z,15.34
2023-04-21T07:40:32.304Z,15.28
2023-04-21T07:43:01.490Z,15.17
2023-04-21T07:45:29.482Z,15.00
2023-04-21T07:47:57.406Z,14.88
2023-04-21T07:50:25.487Z,14.79
2023-04-21T07:52:53.394Z,14.74
2023-04-21T07:55:21.510Z,14.79
2023-04-21T07:57:49.596Z,14.84
2023-04-21T08:00:19.533Z,14.82
2023-04-21T08:02:47.616Z,14.87
2023-04-21T08:05:15.620Z,15.02
2023-04-21T08:07:43.774Z,15.03
2023-04-21T08:10:12.199Z,15.19
2023-04-21T08:12:40.079Z,15.36
2023-04-21T08:15:08.991Z,15.48
2023-04-21T08:17:38.312Z,15.47
2023-04-21T08:20:07.580Z,15.47
2023-04-21T08:22:36.504Z,15.53
2023-04-21T08:25:05.033Z,15.53
2023-04-21T08:27:33.496Z,15.51
2023-04-21T08:30:01.358Z,15.54
2023-04-21T08:32:29.383Z,15.55
2023-04-21T08:34:58.730Z,15.54
2023-04-21T08:37:26.662Z,15.56
2023-04-21T08:39:54.583Z,15.58
2023-04-21T08:42:22.549Z,15.64
2023-04-21T08:44:50.575Z,15.75
2023-04-21T08:47:20.380Z,15.84
2023-04-21T08:49:52.034Z,15.94
2023-04-21T08:52:21.306Z,16.12
2023-04-21T08:54:53.003Z,16.27
2023-04-21T08:57:20.954Z,16.46
2023-04-21T08:59:48.885Z,16.68
2023-04-21T09:02:18.857Z,16.90
2023-04-21T09:04:48.450Z,17.08
2023-04-21T09:07:32.897Z,17.20
2023-04-21T09:10:01.521Z,17.21
2023-04-21T09:12:30.453Z,17.38
2023-04-21T09:14:59.120Z,17.48
2023-04-21T09:17:32.438Z,17.52
2023-04-21T09:20:15.328Z,17.45
2023-04-21T09:22:45.369Z,17.44
2023-04-21T09:25:17.604Z,17.40
2023-04-21T09:27:45.633Z,17.36
2023-04-21T09:30:14.158Z,17.42
2023-04-21T09:32:42.378Z,17.48
2023-04-21T09:35:11.518Z,17.50
2023-04-21T09:37:40.727Z,17.53
2023-04-21T09:40:14.556Z,17.60
2023-04-21T09:42:44.750Z,17.68
2023-04-21T09:47:50.292Z,17.82
2023-04-21T09:50:26.661Z,17.80
2023-04-21T09:53:08.893Z,17.77
2023-04-21T09:55:38.653Z,17.62
2023-04-21T09:58:09.634Z,17.51
2023-04-21T10:00:39.920Z,17.44
2023-04-21T10:03:12.174Z,17.39
2023-04-21T10:05:42.339Z,17.35
2023-04-21T10:08:12.475Z,17.44
2023-04-21T10:10:42.430Z,17.60
2023-04-21T10:13:15.928Z,17.78
2023-04-21T10:15:44.096Z,17.93
2023-04-21T10:18:19.674Z,18.16
2023-04-21T10:20:58.131Z,18.31
2023-04-21T10:23:37.132Z,18.46
2023-04-21T10:26:13.352Z,18.53
2023-04-21T10:28:46.843Z,18.54
2023-04-21T10:31:19.691Z,18.52
2023-04-21T10:34:16.097Z,18.67
2023-04-21T10:36:51.816Z,18.62
2023-04-21T10:39:31.363Z,18.53
2023-04-21T10:42:22.859Z,18.47
2023-04-21T10:45:02.185Z,18.39
2023-04-21T10:47:31.831Z,18.40
2023-04-21T10:50:00.738Z,18.44
2023-04-21T10:52:33.706Z,18.49
2023-04-21T10:55:12.288Z,18.53
2023-04-21T10:57:44.186Z,18.59
2023-04-21T11:00:16.014Z,18.67
2023-04-21T11:02:44.983Z,18.79
2023-04-21T11:05:13.557Z,18.94
2023-04-21T11:07:41.615Z,19.05
2023-04-21T11:10:11.340Z,19.19
2023-04-21T11:12:41.880Z,19.27
2023-04-21T11:15:13.206Z,19.27
2023-04-21T11:17:43.722Z,19.15
2023-04-21T11:20:12.141Z,18.98
2023-04-21T11:22:39.987Z,18.87
2023-04-21T11:25:18.312Z,18.85
2023-04-21T11:27:56.345Z,18.85
2023-04-21T11:30:32.948Z,18.96
2023-04-21T11:33:01.142Z,19.05
2023-04-21T11:35:29.055Z,19.17
2023-04-21T11:37:57.224Z,19.25
2023-04-21T11:40:25.122Z,19.23
2023-04-21T11:42:55.526Z,19.28
2023-04-21T11:45:23.458Z,19.29
2023-04-21T11:47:51.417Z,19.32
2023-04-21T11:50:33.143Z,19.35
2023-04-21T11:53:03.679Z,19.36
2023-04-21T11:55:31.669Z,19.38
2023-04-21T11:58:04.588Z,19.38
2023-04-21T12:00:33.631Z,19.32
2023-04-21T12:03:01.610Z,19.25
2023-04-21T12:05:36.529Z,19.16
2023-04-21T12:08:06.430Z,19.12
2023-04-21T12:10:34.498Z,19.06
2023-04-21T12:13:03.790Z,19.00
2023-04-21T12:15:31.821Z,18.93
2023-04-21T12:18:00.008Z,18.86
2023-04-21T12:20:30.840Z,18.78
2023-04-21T12:22:59.042Z,18.70
2023-04-21T12:25:27.244Z,18.64
2023-04-21T12:27:59.822Z,18.59
2023-04-21T12:30:29.085Z,18.54
2023-04-21T12:32:57.001Z,18.52
2023-04-21T12:35:25.154Z,18.49
2023-04-21T12:37:53.119Z,18.49
2023-04-21T12:40:21.194Z,18.48
2023-04-21T12:42:49.714Z,18.54
2023-04-21T12:45:17.804Z,18.62
2023-04-21T12:47:47.373Z,18.74
2023-04-21T12:50:15.684Z,18.89
2023-04-21T12:52:43.605Z,19.10
2023-04-21T12:55:13.329Z,19.31
2023-04-21T12:57:41.272Z,19.59
2023-04-21T13:00:12.265Z,19.84
2023-04-21T13:02:40.336Z,20.00
2023-04-21T13:05:12.015Z,20.15
2023-04-21T13:07:40.384Z,20.26
2023-04-21T13:10:09.123Z,20.35
2023-04-21T13:12:37.116Z,20.38
2023-04-21T13:15:05.980Z,20.52
2023-04-21T13:17:33.934Z,20.60
2023-04-21T13:20:01.954Z,20.46
2023-04-21T13:22:31.431Z,20.28
2023-04-21T13:24:59.313Z,20.22
2023-04-21T13:27:27.206Z,20.15
2023-04-21T13:29:55.517Z,20.14
2023-04-21T13:32:23.634Z,20.24
2023-04-21T13:34:51.483Z,20.44
2023-04-21T13:37:20.004Z,20.52
2023-04-21T13:39:49.306Z,20.60
2023-04-21T13:42:17.323Z,20.65
2023-04-21T13:44:45.295Z,20.79
2023-04-21T13:47:13.498Z,20.86
2023-04-21T13:49:41.427Z,20.83
2023-04-21T13:52:09.728Z,20.95
2023-04-21T13:54:37.590Z,21.02
2023-04-21T13:57:07.127Z,21.16
2023-04-21T13:59:35.173Z,21.31
2023-04-21T14:02:03.495Z,21.43
2023-04-21T14:04:31.747Z,21.59
2023-04-21T14:06:59.934Z,21.74
2023-04-21T14:09:27.779Z,21.82
2023-04-21T14:11:56.188Z,21.82
2023-04-21T14:14:37.973Z,21.87
2023-04-21T14:17:07.637Z,21.96
2023-04-21T14:19:35.871Z,22.09
2023-04-21T14:22:04.376Z,22.14
2023-04-21T14:24:32.383Z,22.19
2023-04-21T14:27:01.105Z,22.32
2023-04-21T14:29:30.419Z,22.33
2023-04-21T14:31:59.346Z,22.37
2023-04-21T14:34:27.425Z,22.57
2023-04-21T14:36:55.853Z,22.64
2023-04-21T14:39:23.916Z,22.81
2023-04-21T14:41:52.260Z,22.85
2023-04-21T14:44:20.646Z,22.84
2023-04-21T14:47:00.970Z,22.93
2023-04-21T14:49:37.214Z,23.05
2023-04-21T14:52:05.617Z,23.07
2023-04-21T14:54:33.616Z,23.04
2023-04-21T14:57:14.620Z,22.71
2023-04-21T14:59:46.839Z,22.60
2023-04-21T15:02:16.526Z,22.71
2023-04-21T15:04:45.022Z,22.68
2023-04-21T15:07:13.364Z,22.45
2023-04-21T15:09:45.585Z,22.14
2023-04-21T15:12:14.675Z,21.81
2023-04-21T15:14:42.643Z,21.49
2023-04-21T15:17:10.626Z,21.42
2023-04-21T15:19:40.024Z,21.17
2023-04-21T15:22:08.180Z,21.16
2023-04-21T15:24:36.117Z,21.23
2023-04-21T15:27:04.245Z,21.23
2023-04-21T15:29:32.071Z,21.42
2023-04-21T15:31:59.929Z,21.68
2023-04-21T15:34:27.851Z,21.99
2023-04-21T15:36:57.179Z,22.24
2023-04-21T15:39:25.357Z,22.40
2023-04-21T15:41:53.756Z,22.55
2023-04-21T15:44:21.886Z,22.25
2023-04-21T15:46:50.605Z,22.01
2023-04-21T15:49:18.566Z,21.76
2023-04-21T15:51:46.768Z,21.53
2023-04-21T15:54:17.005Z,21.30
2023-04-21T15:56:44.922Z,21.13
2023-04-21T15:59:12.762Z,21.00
2023-04-21T16:01:40.795Z,21.06
2023-04-21T16:04:08.948Z,21.15
2023-04-21T16:06:38.048Z,21.33
2023-04-21T16:09:06.116Z,21.53
2023-04-21T16:11:35.414Z,21.59
2023-04-21T16:14:03.528Z,21.76
2023-04-21T16:16:31.507Z,21.81
2023-04-21T16:18:59.514Z,21.99
2023-04-21T16:21:27.841Z,22.15
2023-04-21T16:23:55.918Z,22.13
2023-04-21T16:26:24.002Z,22.19
2023-04-21T16:28:54.327Z,22.15
2023-04-21T16:31:22.788Z,22.15
2023-04-21T16:33:52.512Z,22.14
2023-04-21T16:36:21.643Z,22.14
2023-04-21T16:38:49.561Z,22.12
2023-04-21T16:41:20.278Z,22.13
2023-04-21T16:43:48.971Z,22.10
2023-04-21T16:46:18.575Z,22.01
2023-04-21T16:48:47.247Z,21.95
2023-04-21T16:51:15.207Z,21.88
2023-04-21T16:53:43.202Z,21.77
2023-04-21T16:56:11.163Z,21.63
2023-04-21T16:58:39.511Z,21.54
2023-04-21T17:01:08.386Z,21.41
2023-04-21T17:03:37.866Z,21.27
2023-04-21T17:06:10.730Z,21.08
2023-04-21T17:08:38.821Z,20.88
2023-04-21T17:11:06.675Z,20.61
2023-04-21T17:13:38.224Z,20.37
2023-04-21T17:16:07.982Z,20.09
2023-04-21T17:18:37.776Z,19.87
2023-04-21T17:21:06.964Z,19.66
2023-04-21T17:23:37.766Z,19.44
2023-04-21T17:26:06.566Z,19.24
2023-04-21T17:28:34.416Z,19.04
2023-04-21T17:31:14.237Z,18.91
2023-04-21T17:33:44.469Z,18.73
2023-04-21T17:36:12.591Z,18.57
2023-04-21T17:38:41.832Z,18.45
2023-04-21T17:41:09.791Z,18.33
2023-04-21T17:43:37.636Z,18.22
2023-04-21T17:46:07.055Z,18.12
2023-04-21T17:48:35.553Z,18.05
2023-04-21T17:51:05.080Z,17.93
2023-04-21T17:53:33.153Z,17.81
2023-04-21T17:56:01.239Z,17.69
2023-04-21T17:58:29.362Z,17.61
2023-04-21T18:00:57.204Z,17.56
2023-04-21T18:03:25.310Z,17.50
2023-04-21T18:05:53.359Z,17.45
2023-04-21T18:08:23.082Z,17.39
2023-04-21T18:10:51.080Z,17.35
2023-04-21T18:13:18.962Z,17.31
2023-04-21T18:15:46.967Z,17.30
2023-04-21T18:18:14.947Z,17.29
2023-04-21T18:20:42.983Z,17.26
2023-04-21T18:23:10.870Z,17.20
2023-04-21T18:25:42.912Z,17.14
2023-04-21T18:28:12.860Z,16.96
2023-04-21T18:30:41.643Z,16.93
2023-04-21T18:33:10.023Z,16.86
2023-04-21T18:35:38.182Z,16.80
2023-04-21T18:38:07.896Z,16.70
2023-04-21T18:40:37.377Z,16.67
2023-04-21T18:43:07.594Z,16.61
2023-04-21T18:45:35.773Z,16.53
2023-04-21T18:48:03.729Z,16.46
2023-04-21T18:50:34.695Z,16.38
2023-04-21T18:53:04.639Z,16.36
2023-04-21T18:55:33.479Z,16.36
2023-04-21T18:58:01.495Z,16.25
2023-04-21T19:00:32.220Z,16.23
2023-04-21T19:03:02.114Z,16.22
2023-04-21T19:05:31.721Z,16.22
2023-04-21T19:07:59.929Z,16.14
2023-04-21T19:10:28.439Z,16.08
2023-04-21T19:12:56.428Z,16.04
2023-04-21T19:15:24.295Z,15.99
2023-04-21T19:17:54.568Z,15.95
2023-04-21T19:20:22.801Z,15.92
2023-04-21T19:22:50.959Z,15.89
2023-04-21T19:25:18.919Z,15.88
2023-04-21T19:27:48.181Z,15.91
2023-04-21T19:30:16.226Z,15.95
2023-04-21T19:32:44.265Z,15.88
2023-04-21T19:35:13.600Z,15.92
2023-04-21T19:37:41.444Z,15.90
2023-04-21T19:40:10.578Z,15.82
2023-04-21T19:42:41.497Z,15.84
2023-04-21T19:45:11.034Z,15.83
2023-04-21T19:47:38.931Z,15.84
2023-04-21T19:50:08.410Z,15.85
2023-04-21T19:52:37.784Z,15.78
2023-04-21T19:55:06.673Z,15.74
2023-04-21T19:57:34.565Z,15.73
2023-04-21T20:00:02.915Z,15.66
2023-04-21T20:02:40.313Z,15.67
2023-04-21T20:05:09.445Z,15.62
2023-04-21T20:07:39.563Z,15.61
2023-04-21T20:10:08.277Z,15.49
2023-04-21T20:12:36.402Z,15.42
2023-04-21T20:15:05.133Z,15.40
2023-04-21T20:17:33.458Z,15.33
2023-04-21T20:20:01.434Z,15.36
2023-04-21T20:22:29.307Z,15.37
2023-04-21T20:24:58.912Z,15.32
2023-04-21T20:27:27.042Z,15.27
2023-04-21T20:29:54.927Z,15.28
2023-04-21T20:32:22.864Z,15.30
2023-04-21T20:34:51.750Z,15.31
2023-04-21T20:37:19.701Z,15.25
2023-04-21T20:39:47.732Z,15.18
2023-04-21T20:42:18.823Z,15.15
2023-04-21T20:44:47.297Z,15.09
2023-04-21T20:47:15.682Z,15.09
2023-04-21T20:49:43.870Z,15.08
2023-04-21T20:52:11.929Z,15.08
2023-04-21T20:54:40.071Z,15.10
2023-04-21T20:57:10.169Z,15.07
2023-04-21T20:59:39.682Z,15.02
2023-04-21T21:02:08.074Z,14.86
2023-04-21T21:04:36.193Z,14.60
2023-04-21T21:07:04.084Z,14.51
2023-04-21T21:09:32.407Z,14.48
2023-04-21T21:12:02.330Z,14.49
2023-04-21T21:14:30.176Z,14.53
2023-04-21T21:16:59.620Z,14.43
2023-04-21T21:19:27.817Z,14.35
2023-04-21T21:21:55.800Z,14.40
2023-04-21T21:24:24.842Z,14.43
2023-04-21T21:26:52.780Z,14.24
2023-04-21T21:29:20.651Z,13.95
2023-04-21T21:31:48.585Z,13.78
2023-04-21T21:34:17.827Z,13.82
2023-04-21T21:36:45.780Z,13.93
2023-04-21T21:39:13.736Z,14.02
2023-04-21T21:41:41.615Z,14.09
2023-04-21T21:44:10.438Z,14.13
2023-04-21T21:46:38.452Z,14.24
2023-04-21T21:49:06.448Z,14.27
2023-04-21T21:51:35.692Z,14.28
2023-04-21T21:54:03.607Z,14.31
2023-04-21T21:56:31.751Z,14.32
2023-04-21T21:58:59.780Z,14.32
2023-04-21T22:01:27.800Z,14.31
2023-04-21T22:03:56.394Z,14.29
2023-04-21T22:06:26.580Z,14.27
2023-04-21T22:08:55.938Z,14.18
2023-04-21T22:11:24.016Z,14.17
2023-04-21T22:13:52.028Z,14.16
2023-04-21T22:16:19.928Z,13.99
2023-04-21T22:18:48.479Z,13.76
2023-04-21T22:21:16.541Z,13.55
2023-04-21T22:23:45.095Z,13.41
2023-04-21T22:26:14.357Z,13.37
2023-04-21T22:28:42.520Z,13.36
2023-04-21T22:31:11.564Z,13.37
2023-04-21T22:33:39.571Z,13.31
2023-04-21T22:36:09.820Z,13.39
2023-04-21T22:38:38.303Z,13.43
2023-04-21T22:41:06.633Z,13.31
2023-04-21T22:43:36.118Z,13.22
2023-04-21T22:46:03.997Z,13.17
2023-04-21T22:48:32.729Z,13.16
2023-04-21T22:51:01.431Z,13.14
2023-04-21T22:53:29.490Z,13.22
2023-04-21T22:55:57.374Z,13.15
2023-04-21T22:58:26.026Z,13.05
2023-04-21T23:00:55.375Z,12.84
2023-04-21T23:03:23.778Z,12.75
2023-04-21T23:05:51.837Z,12.75
2023-04-21T23:08:19.641Z,12.73
2023-04-21T23:10:47.589Z,12.83
2023-04-21T23:13:15.606Z,13.00
2023-04-21T23:15:43.547Z,13.09
2023-04-21T23:18:12.824Z,13.12
2023-04-21T23:20:40.823Z,13.15
2023-04-21T23:23:08.721Z,13.13
2023-04-21T23:25:36.676Z,13.11
2023-04-21T23:28:04.778Z,13.03
2023-04-21T23:30:32.733Z,12.99
2023-04-21T23:33:00.942Z,13.02
2023-04-21T23:35:30.315Z,13.02
2023-04-21T23:37:58.232Z,13.03
2023-04-21T23:40:26.208Z,13.02
2023-04-21T23:42:54.135Z,13.01
2023-04-21T23:45:22.141Z,13.06
2023-04-21T23:47:50.207Z,13.17
2023-04-21T23:50:18.266Z,13.22
2023-04-21T23:52:48.999Z,13.37
2023-04-21T23:55:16.884Z,13.41
2023-04-21T23:57:46.754Z,13.42
